Time;durP1;ratioP1;P1;durP2;ratioP2;P2;SDS_P1;SDS_P2;PMS_P1;PMS_P2;Temp;Humidity;BMP_temperature;BMP_pressure;BME280_temperature;BME280_humidity;BME280_pressure;Samples;Min_cycle;Max_cycle;Signal;HPM_P1;HPM_P2
2024/01/31 00:00:35;;;;;;;0.90;0.90;;;;;;;5.90;81.60;100150.28;4964843;28;20023;-93
2024/01/31 00:03:01;;;;;;;0.80;0.80;;;;;;;5.73;82.41;100156.13;4979057;28;20198;-93
2024/01/31 00:05:26;;;;;;;0.80;0.80;;;;;;;5.86;82.47;100150.88;4957901;28;20035;-93
2024/01/31 00:07:51;;;;;;;0.80;0.80;;;;;;;5.92;82.19;100151.34;4963084;28;20050;-92
2024/01/31 00:10:17;;;;;;;0.80;0.80;;;;;;;6.00;81.83;100151.88;4976864;28;20046;-92
2024/01/31 00:12:42;;;;;;;0.80;0.80;;;;;;;5.95;82.09;100154.22;4977857;28;20561;-93
2024/01/31 00:15:08;;;;;;;0.80;0.80;;;;;;;6.01;81.85;100148.41;4977779;28;20043;-92
2024/01/31 00:17:33;;;;;;;0.70;0.70;;;;;;;6.02;81.54;100151.16;4975866;28;20068;-92
2024/01/31 00:19:59;;;;;;;0.80;0.80;;;;;;;5.94;81.66;100151.44;4963081;28;20038;-92
2024/01/31 00:22:27;;;;;;;0.90;0.90;;;;;;;6.03;81.70;100146.78;4975630;28;20073;-93
2024/01/31 00:24:53;;;;;;;0.80;0.80;;;;;;;6.03;81.69;100154.72;4965332;28;20118;-92
2024/01/31 00:27:18;;;;;;;0.80;0.80;;;;;;;6.01;81.74;100151.06;4959300;28;20073;-92
2024/01/31 00:29:44;;;;;;;0.73;0.73;;;;;;;6.01;81.88;100154.63;4976411;28;20073;-93
2024/01/31 00:32:09;;;;;;;0.80;0.80;;;;;;;6.03;82.16;100149.44;4962715;28;20065;-93
2024/01/31 00:34:34;;;;;;;0.85;0.85;;;;;;;6.04;82.26;100146.00;4964345;28;20098;-92
2024/01/31 00:37:00;;;;;;;0.70;0.70;;;;;;;5.88;82.69;100146.59;4958296;28;20636;-92
2024/01/31 00:39:31;;;;;;;0.80;0.80;;;;;;;5.95;82.88;100150.66;4961842;28;20038;-93
2024/01/31 00:41:56;;;;;;;0.80;0.80;;;;;;;6.01;82.30;100156.38;4960400;28;20026;-93
2024/01/31 00:44:22;;;;;;;0.80;0.80;;;;;;;6.01;81.99;100156.38;4979492;28;20382;-93
2024/01/31 00:46:48;;;;;;;0.80;0.80;;;;;;;5.97;82.27;100149.00;4970551;28;20396;-93
2024/01/31 00:49:14;;;;;;;0.80;0.80;;;;;;;6.03;82.40;100154.72;4961446;28;20062;-93
2024/01/31 00:51:43;;;;;;;0.80;0.80;;;;;;;6.07;81.87;100148.84;4979579;28;20062;-92
2024/01/31 00:54:12;;;;;;;0.80;0.80;;;;;;;6.10;81.80;100151.72;4988868;28;20054;-93
2024/01/31 00:56:39;;;;;;;0.70;0.70;;;;;;;5.87;82.63;100150.06;5000650;28;20035;-93
2024/01/31 00:59:05;;;;;;;0.80;0.80;;;;;;;5.93;82.74;100150.50;4994153;28;20031;-94
2024/01/31 01:01:31;;;;;;;0.80;0.80;;;;;;;5.86;83.22;100153.53;4996566;28;20030;-93
2024/01/31 01:03:56;;;;;;;0.80;0.80;;;;;;;5.79;83.35;100156.53;5010616;28;20038;-94
2024/01/31 01:06:22;;;;;;;0.80;0.80;;;;;;;5.83;83.60;100154.22;4990104;28;20059;-93
2024/01/31 01:08:47;;;;;;;0.80;0.80;;;;;;;5.87;83.17;100156.28;5002282;28;20034;-94
2024/01/31 01:11:13;;;;;;;0.70;0.70;;;;;;;5.72;83.76;100149.00;4977438;28;20049;-93
2024/01/31 01:13:38;;;;;;;0.70;0.70;;;;;;;5.76;84.41;100148.41;4995304;28;20157;-93
2024/01/31 01:16:04;;;;;;;0.90;0.90;;;;;;;5.70;84.54;100148.88;4978791;28;20069;-93
2024/01/31 01:18:29;;;;;;;0.80;0.80;;;;;;;5.76;84.85;100149.31;4991259;28;20057;-93
2024/01/31 01:20:55;;;;;;;0.80;0.80;;;;;;;5.90;83.95;100147.66;4980966;28;20137;-93
2024/01/31 01:23:20;;;;;;;0.80;0.80;;;;;;;5.88;83.93;100154.53;4959050;28;20070;-93
2024/01/31 01:25:47;;;;;;;0.80;0.80;;;;;;;5.90;83.98;100151.22;4977729;28;20107;-93
2024/01/31 01:28:12;;;;;;;0.85;0.85;;;;;;;5.94;83.78;100156.72;4977740;28;20026;-93
2024/01/31 01:30:37;;;;;;;0.80;0.80;;;;;;;5.97;83.61;100154.31;4979345;28;20053;-93
2024/01/31 01:33:03;;;;;;;0.80;0.80;;;;;;;5.89;83.87;100154.69;4974294;28;20030;-92
2024/01/31 01:35:29;;;;;;;0.80;0.80;;;;;;;5.77;84.52;100148.50;4960098;28;20039;-92
2024/01/31 01:37:54;;;;;;;0.90;0.90;;;;;;;5.87;83.79;100147.41;4968776;28;20421;-90
2024/01/31 01:40:19;;;;;;;0.80;0.80;;;;;;;5.95;83.79;100148.00;4981903;28;20121;-93
2024/01/31 01:42:46;;;;;;;0.80;0.80;;;;;;;5.97;83.86;100143.72;4982867;28;20073;-92
2024/01/31 01:45:12;;;;;;;0.80;0.80;;;;;;;6.11;83.22;100148.25;4977041;28;20141;-93
2024/01/31 01:47:39;;;;;;;0.80;0.80;;;;;;;5.95;83.24;100148.91;4964085;28;20073;-92
2024/01/31 01:50:05;;;;;;;0.80;0.80;;;;;;;5.94;83.97;100151.44;4982271;28;20027;-93
2024/01/31 01:52:32;;;;;;;0.80;0.80;;;;;;;5.99;83.92;100142.06;4963123;28;20062;-93
2024/01/31 01:55:02;;;;;;;0.77;0.77;;;;;;;5.98;83.56;100149.09;4964215;28;20038;-92
2024/01/31 01:57:30;;;;;;;0.80;0.80;;;;;;;5.93;83.88;100142.56;4971559;28;20076;-92
2024/01/31 01:59:57;;;;;;;0.80;0.80;;;;;;;5.81;84.13;100137.31;4960177;28;20125;-92
2024/01/31 02:02:23;;;;;;;0.80;0.80;;;;;;;5.86;84.15;100138.56;4989179;28;20038;-93
2024/01/31 02:04:49;;;;;;;0.80;0.80;;;;;;;5.87;84.47;100132.44;4984206;28;20038;-93
2024/01/31 02:07:20;;;;;;;0.75;0.75;;;;;;;5.74;84.93;100137.66;4976849;28;20507;-94
2024/01/31 02:09:46;;;;;;;0.70;0.70;;;;;;;5.82;84.98;100131.19;4965139;28;20058;-94
2024/01/31 02:12:12;;;;;;;0.90;0.90;;;;;;;5.89;84.79;100127.22;4977266;28;20019;-93
2024/01/31 02:14:40;;;;;;;;;;;;;;;5.72;85.06;100134.00;4978417;28;20094;-94
2024/01/31 02:17:05;;;;;;;0.80;0.80;;;;;;;5.72;85.12;100120.78;4961062;28;19925;-93
2024/01/31 02:19:31;;;;;;;0.80;0.80;;;;;;;5.69;85.50;100120.53;4974557;28;20042;-94
2024/01/31 02:22:01;;;;;;;0.90;0.90;;;;;;;5.64;85.76;100116.66;4980352;28;20023;-93
2024/01/31 02:24:26;;;;;;;0.80;0.80;;;;;;;5.80;85.06;100118.69;4977360;28;20054;-92
2024/01/31 02:26:52;;;;;;;0.80;0.80;;;;;;;5.76;85.21;100122.84;4976720;28;20043;-91
2024/01/31 02:29:18;;;;;;;0.82;0.82;;;;;;;5.74;85.45;100126.16;4982760;28;20049;-93
2024/01/31 02:31:43;;;;;;;0.80;0.80;;;;;;;5.78;85.31;100110.59;4981578;28;20110;-91
2024/01/31 02:34:09;;;;;;;0.80;0.80;;;;;;;5.82;84.99;100110.00;4998466;28;20051;-93
2024/01/31 02:36:34;;;;;;;0.80;0.80;;;;;;;5.95;84.65;100105.63;4977598;28;20042;-92
2024/01/31 02:38:59;;;;;;;0.80;0.80;;;;;;;5.82;85.05;100110.00;4978224;28;20039;-92
2024/01/31 02:41:25;;;;;;;0.80;0.80;;;;;;;5.89;84.90;100100.75;4982578;28;20030;-92
2024/01/31 02:43:50;;;;;;;0.90;0.90;;;;;;;5.77;85.53;100111.41;4967990;28;20038;-92
2024/01/31 02:46:16;;;;;;;0.80;0.80;;;;;;;5.88;85.49;100112.16;4976845;28;20050;-93
2024/01/31 02:48:41;;;;;;;0.80;0.80;;;;;;;5.77;85.64;100108.78;4976456;28;20027;-92
2024/01/31 02:51:08;;;;;;;0.80;0.80;;;;;;;5.90;85.33;100114.13;4955745;28;20023;-93
2024/01/31 02:53:35;;;;;;;0.80;0.80;;;;;;;5.96;85.04;100115.41;4983132;28;20070;-93
2024/01/31 02:56:00;;;;;;;0.82;0.82;;;;;;;6.02;84.73;100114.06;4979869;28;20054;-92
2024/01/31 02:58:26;;;;;;;0.75;0.75;;;;;;;6.00;84.63;100105.13;4953313;28;20039;-91
2024/01/31 03:00:51;;;;;;;0.80;0.80;;;;;;;5.92;84.68;100111.59;4963598;28;20485;-92
2024/01/31 03:03:17;;;;;;;0.90;0.90;;;;;;;6.01;84.74;100108.69;4967121;28;21554;-91
2024/01/31 03:05:42;;;;;;;0.77;0.77;;;;;;;6.05;84.43;100109.00;4982328;28;20030;-93
2024/01/31 03:08:08;;;;;;;0.80;0.80;;;;;;;5.80;85.04;100108.09;4961132;28;20606;-92
2024/01/31 03:10:33;;;;;;;0.80;0.80;;;;;;;5.89;85.35;100114.00;4977998;28;20073;-92
2024/01/31 03:12:59;;;;;;;0.88;0.88;;;;;;;5.88;85.14;100110.44;4961273;28;20038;-92
2024/01/31 03:15:24;;;;;;;0.80;0.80;;;;;;;5.91;85.31;100105.38;4960250;28;20034;-92
2024/01/31 03:17:50;;;;;;;0.80;0.80;;;;;;;6.06;84.72;100120.50;4973286;28;20039;-92
2024/01/31 03:20:15;;;;;;;0.80;0.80;;;;;;;5.96;85.02;100103.06;4981890;28;20514;-91
2024/01/31 03:22:41;;;;;;;0.80;0.80;;;;;;;5.78;85.78;100100.00;4983138;28;20018;-93
2024/01/31 03:25:07;;;;;;;0.80;0.80;;;;;;;5.79;86.04;100098.28;4951326;28;20042;-92
2024/01/31 03:27:33;;;;;;;0.80;0.80;;;;;;;5.80;86.14;100097.50;4983997;28;20041;-92
2024/01/31 03:30:02;;;;;;;0.90;0.90;;;;;;;5.67;86.52;100095.69;4982365;28;20041;-92
2024/01/31 03:32:29;;;;;;;0.90;0.90;;;;;;;5.74;86.64;100097.94;4970612;28;20397;-92
2024/01/31 03:34:55;;;;;;;0.80;0.80;;;;;;;5.71;86.45;100095.13;4981589;28;20041;-92
2024/01/31 03:37:21;;;;;;;0.90;0.90;;;;;;;5.85;86.17;100094.34;4968937;28;20058;-91
2024/01/31 03:39:47;;;;;;;0.70;0.70;;;;;;;5.88;85.98;100091.88;4992209;28;20102;-91
2024/01/31 03:42:12;;;;;;;0.80;0.80;;;;;;;5.94;85.76;100098.47;4990113;28;20026;-93
2024/01/31 03:44:38;;;;;;;0.80;0.80;;;;;;;5.82;85.65;100099.41;4980040;28;20054;-93
2024/01/31 03:47:03;;;;;;;0.80;0.80;;;;;;;5.92;85.69;100093.06;4982389;28;20062;-92
2024/01/31 03:49:30;;;;;;;0.70;0.70;;;;;;;6.03;85.17;100101.75;4980776;28;20038;-92
2024/01/31 03:51:57;;;;;;;0.90;0.90;;;;;;;6.10;84.98;100096.06;4982174;28;20038;-92
2024/01/31 03:54:23;;;;;;;0.90;0.90;;;;;;;6.06;85.04;100097.59;4960449;28;20698;-91
2024/01/31 03:56:51;;;;;;;0.82;0.82;;;;;;;6.07;84.79;100098.50;4980496;28;20045;-91
2024/01/31 03:59:22;;;;;;;0.73;0.73;;;;;;;6.09;84.93;100088.94;4945457;28;20039;-92
2024/01/31 04:01:53;;;;;;;0.75;0.75;;;;;;;6.13;84.67;100085.66;4961971;28;20046;-92
2024/01/31 04:04:19;;;;;;;0.70;0.70;;;;;;;5.92;85.74;100087.75;4979637;28;20477;-92
2024/01/31 04:06:45;;;;;;;0.80;0.80;;;;;;;5.96;85.34;100086.25;4963208;28;20037;-92
2024/01/31 04:09:13;;;;;;;0.90;0.90;;;;;;;5.95;85.46;100097.66;4974812;28;20027;-92
2024/01/31 04:11:43;;;;;;;0.82;0.82;;;;;;;6.02;85.51;100097.25;4950117;28;20082;-92
2024/01/31 04:14:12;;;;;;;0.80;0.80;;;;;;;6.05;85.19;100102.78;4973585;28;20121;-92
2024/01/31 04:16:47;;;;;;;0.85;0.85;;;;;;;6.05;85.00;100106.34;4968037;28;20084;-92
2024/01/31 04:19:12;;;;;;;0.80;0.80;;;;;;;6.01;85.16;100100.72;4968364;28;20035;-92
2024/01/31 04:21:38;;;;;;;0.70;0.70;;;;;;;6.02;85.50;100103.47;4977052;28;20043;-91
2024/01/31 04:24:04;;;;;;;0.80;0.80;;;;;;;6.11;85.33;100098.81;4981841;28;20081;-91
2024/01/31 04:26:31;;;;;;;0.80;0.80;;;;;;;6.21;84.92;100102.09;4961521;28;20109;-92
2024/01/31 04:28:59;;;;;;;0.80;0.80;;;;;;;6.08;84.76;100108.28;4979586;28;20045;-91
2024/01/31 04:31:25;;;;;;;0.80;0.80;;;;;;;6.17;85.24;100109.81;4981542;28;20029;-92
2024/01/31 04:33:56;;;;;;;0.80;0.80;;;;;;;6.09;85.50;100113.69;4959117;28;20046;-92
2024/01/31 04:36:25;;;;;;;0.77;0.77;;;;;;;6.07;85.46;100111.75;4978549;28;20061;-92
2024/01/31 04:38:56;;;;;;;0.80;0.80;;;;;;;6.10;85.82;100117.25;4978262;28;20068;-92
2024/01/31 04:41:29;;;;;;;0.80;0.80;;;;;;;5.84;86.38;100108.38;4979450;28;20062;-93
2024/01/31 04:43:58;;;;;;;0.80;0.80;;;;;;;5.87;86.61;100118.28;4995530;28;20065;-93
2024/01/31 04:46:24;;;;;;;0.85;0.85;;;;;;;5.86;86.64;100120.00;4955824;28;20039;-92
2024/01/31 04:48:55;;;;;;;0.80;0.80;;;;;;;5.85;86.95;100126.13;4954585;28;20393;-93
2024/01/31 04:51:27;;;;;;;0.80;0.80;;;;;;;5.89;87.04;100128.19;4977220;28;20053;-92
2024/01/31 04:53:57;;;;;;;0.82;0.82;;;;;;;6.00;86.70;100128.03;4968721;28;20050;-92
2024/01/31 04:56:22;;;;;;;0.80;0.80;;;;;;;6.02;86.21;100135.28;4978202;28;20560;-92
2024/01/31 04:58:51;;;;;;;0.80;0.80;;;;;;;6.07;86.43;100133.84;4971236;28;20026;-92
2024/01/31 05:01:35;;;;;;;0.73;0.73;;;;;;;5.95;86.93;100138.31;4978289;28;20037;-92
2024/01/31 05:04:00;;;;;;;0.80;0.80;;;;;;;5.97;86.86;100141.06;4976241;28;20328;-91
2024/01/31 05:06:26;;;;;;;0.90;0.90;;;;;;;5.91;87.19;100144.19;4982125;28;20034;-92
2024/01/31 05:08:58;;;;;;;0.80;0.80;;;;;;;5.96;87.52;100147.19;4976441;28;20126;-92
2024/01/31 05:11:25;;;;;;;0.85;0.85;;;;;;;6.04;87.31;100152.22;4975619;28;20117;-93
2024/01/31 05:14:04;;;;;;;0.80;0.80;;;;;;;5.95;87.74;100161.25;4976410;28;20043;-93
2024/01/31 05:16:29;;;;;;;0.70;0.70;;;;;;;5.84;88.35;100160.44;4984990;28;20042;-92
2024/01/31 05:18:58;;;;;;;0.90;0.90;;;;;;;5.94;88.23;100157.69;4971819;28;20440;-92
2024/01/31 05:21:29;;;;;;;0.80;0.80;;;;;;;5.83;88.24;100158.59;4974002;28;20031;-92
2024/01/31 05:24:06;;;;;;;0.80;0.80;;;;;;;5.77;88.88;100155.53;4981434;28;20054;-94
2024/01/31 05:26:31;;;;;;;0.90;0.90;;;;;;;5.82;88.68;100159.41;4977032;28;20042;-93
2024/01/31 05:28:57;;;;;;;0.82;0.82;;;;;;;5.71;89.20;100163.97;4987983;28;20038;-93
2024/01/31 05:31:22;;;;;;;0.90;0.90;;;;;;;5.88;88.87;100162.50;4974864;28;20058;-92
2024/01/31 05:33:48;;;;;;;0.80;0.80;;;;;;;5.79;88.99;100162.75;4984188;28;20034;-93
2024/01/31 05:36:15;;;;;;;0.80;0.80;;;;;;;5.87;88.77;100168.59;4988046;28;20042;-91
2024/01/31 05:38:40;;;;;;;0.82;0.82;;;;;;;5.92;88.82;100153.97;4987905;28;20026;-93
2024/01/31 05:41:06;;;;;;;0.82;0.82;;;;;;;6.01;88.46;100161.66;4992450;28;20082;-94
2024/01/31 05:43:31;;;;;;;0.80;0.80;;;;;;;5.82;89.23;100168.28;4991234;28;20027;-94
2024/01/31 05:45:57;;;;;;;0.82;0.82;;;;;;;5.80;89.54;100172.56;4997315;28;20023;-93
2024/01/31 05:48:22;;;;;;;0.80;0.80;;;;;;;5.82;89.51;100173.56;4994883;28;20105;-93
2024/01/31 05:50:47;;;;;;;0.80;0.80;;;;;;;5.72;90.67;100173.72;5006444;28;20023;-94
2024/01/31 05:53:13;;;;;;;0.80;0.80;;;;;;;5.74;90.66;100179.13;4974739;28;20093;-93
2024/01/31 05:55:38;;;;;;;0.77;0.77;;;;;;;5.80;90.48;100175.22;4986011;28;20038;-93
2024/01/31 05:58:04;;;;;;;0.80;0.80;;;;;;;5.79;90.48;100177.72;4983154;28;20038;-93
2024/01/31 06:00:29;;;;;;;0.80;0.80;;;;;;;5.70;91.06;100178.00;4993375;28;20038;-93
2024/01/31 06:02:55;;;;;;;0.90;0.90;;;;;;;5.62;91.36;100181.84;4978355;28;20026;-93
2024/01/31 06:05:20;;;;;;;0.90;0.90;;;;;;;5.48;91.86;100178.19;4980074;28;20050;-92
2024/01/31 06:07:46;;;;;;;0.88;0.88;;;;;;;5.45;92.08;100182.34;4984323;28;20030;-92
2024/01/31 06:10:14;;;;;;;0.90;0.90;;;;;;;5.59;91.92;100179.88;4982100;28;20034;-93
2024/01/31 06:12:40;;;;;;;0.88;0.88;;;;;;;5.63;92.13;100181.94;4964258;28;20393;-93
2024/01/31 06:15:07;;;;;;;0.90;0.90;;;;;;;5.55;92.20;100180.44;4945387;28;20692;-93
2024/01/31 06:17:33;;;;;;;0.80;0.80;;;;;;;5.69;92.21;100186.75;4964914;28;20130;-93
2024/01/31 06:19:58;;;;;;;0.80;0.80;;;;;;;5.75;91.50;100183.59;4979794;28;20069;-94
2024/01/31 06:22:24;;;;;;;0.80;0.80;;;;;;;5.60;92.15;100184.34;4980492;28;20038;-94
2024/01/31 06:24:49;;;;;;;0.80;0.80;;;;;;;5.71;92.23;100189.53;4987869;28;20035;-93
2024/01/31 06:27:15;;;;;;;0.80;0.80;;;;;;;5.69;92.23;100183.19;5000421;28;20422;-94
2024/01/31 06:29:40;;;;;;;0.90;0.90;;;;;;;5.66;92.61;100186.53;4984056;28;20532;-92
2024/01/31 06:32:08;;;;;;;0.85;0.85;;;;;;;5.72;92.37;100188.72;4964555;28;20022;-92
2024/01/31 06:34:33;;;;;;;0.85;0.85;;;;;;;5.66;92.82;100181.25;4976360;28;20768;-93
2024/01/31 06:37:00;;;;;;;0.80;0.80;;;;;;;5.63;92.96;100192.53;4978016;28;20034;-93
2024/01/31 06:39:26;;;;;;;0.83;0.83;;;;;;;5.72;92.90;100192.28;4970093;28;20547;-93
2024/01/31 06:41:52;;;;;;;0.82;0.82;;;;;;;5.67;92.58;100188.38;4964989;28;20286;-92
2024/01/31 06:44:18;;;;;;;0.80;0.80;;;;;;;5.71;93.06;100184.22;4982082;28;20023;-92
2024/01/31 06:46:48;;;;;;;0.80;0.80;;;;;;;5.66;92.93;100190.09;4982657;28;20136;-92
2024/01/31 06:49:14;;;;;;;0.80;0.80;;;;;;;5.61;93.61;100182.66;4973772;28;20043;-93
2024/01/31 06:51:41;;;;;;;0.90;0.90;;;;;;;5.60;94.13;100180.78;4980385;28;20030;-92
2024/01/31 06:54:06;;;;;;;0.88;0.88;;;;;;;5.61;94.50;100190.59;4958230;28;20038;-92
2024/01/31 06:56:32;;;;;;;0.80;0.80;;;;;;;5.69;94.58;100193.78;4967095;28;20039;-92
2024/01/31 06:58:58;;;;;;;0.90;0.90;;;;;;;5.64;94.44;100194.34;4979303;28;20121;-91
2024/01/31 07:01:23;;;;;;;0.80;0.80;;;;;;;5.76;94.11;100202.28;4977461;28;20043;-91
2024/01/31 07:03:49;;;;;;;0.85;0.85;;;;;;;5.86;94.17;100204.75;4983564;28;20046;-91
2024/01/31 07:06:15;;;;;;;0.82;0.82;;;;;;;5.71;93.74;100198.38;4957032;28;20044;-91
2024/01/31 07:08:41;;;;;;;0.90;0.90;;;;;;;5.70;94.31;100201.84;4976177;28;20026;-92
2024/01/31 07:11:08;;;;;;;0.80;0.80;;;;;;;5.82;94.06;100194.75;4979561;28;20038;-90
2024/01/31 07:13:39;;;;;;;0.90;0.90;;;;;;;5.85;94.41;100204.66;4978567;28;20098;-90
2024/01/31 07:16:09;;;;;;;0.80;0.80;;;;;;;5.82;94.40;100191.19;4979884;28;20051;-91
2024/01/31 07:18:42;;;;;;;0.80;0.80;;;;;;;5.89;94.56;100202.34;4957078;28;20063;-91
2024/01/31 07:21:09;;;;;;;0.80;0.80;;;;;;;5.95;93.90;100196.59;4994177;28;20075;-91
2024/01/31 07:23:35;;;;;;;0.80;0.80;;;;;;;6.07;94.02;100199.19;4966584;28;20062;-92
2024/01/31 07:26:03;;;;;;;0.80;0.80;;;;;;;5.95;93.71;100201.91;4976522;28;20145;-92
2024/01/31 07:28:29;;;;;;;;;;;;;;;6.05;93.94;100204.38;4978607;28;20117;-91
2024/01/31 07:30:54;;;;;;;0.90;0.90;;;;;;;6.15;93.43;100206.84;4989229;28;19958;-91
2024/01/31 07:33:20;;;;;;;0.80;0.80;;;;;;;6.18;93.32;100200.88;4973883;28;20037;-91
2024/01/31 07:35:46;;;;;;;0.80;0.80;;;;;;;6.10;93.21;100195.03;4969872;28;20129;-91
2024/01/31 07:38:12;;;;;;;0.80;0.80;;;;;;;6.14;93.44;100196.16;4982675;28;20393;-92
2024/01/31 07:40:38;;;;;;;0.90;0.90;;;;;;;6.21;92.51;100198.41;4983344;28;20039;-92
2024/01/31 07:43:04;;;;;;;0.80;0.80;;;;;;;6.21;92.31;100197.50;4997323;28;20282;-92
2024/01/31 07:45:29;;;;;;;0.80;0.80;;;;;;;6.26;92.55;100204.03;4992739;28;20140;-92
2024/01/31 07:47:56;;;;;;;0.80;0.80;;;;;;;6.34;91.73;100202.84;4984783;28;20043;-93
2024/01/31 07:50:22;;;;;;;0.90;0.90;;;;;;;6.35;91.63;100199.38;4948868;29;20066;-92
2024/01/31 07:52:48;;;;;;;0.80;0.80;;;;;;;6.44;91.55;100202.66;4974553;28;20354;-93
2024/01/31 07:55:14;;;;;;;0.70;0.70;;;;;;;6.50;91.40;100191.56;4988495;28;20158;-93
2024/01/31 07:57:40;;;;;;;0.80;0.80;;;;;;;6.56;90.77;100184.00;4982408;28;20034;-93
2024/01/31 08:00:06;;;;;;;0.70;0.70;;;;;;;6.55;90.39;100188.41;4984158;28;20035;-93
2024/01/31 08:02:33;;;;;;;0.80;0.80;;;;;;;6.50;90.57;100195.13;4988068;28;20031;-92
2024/01/31 08:04:59;;;;;;;0.80;0.80;;;;;;;6.53;90.47;100190.03;4978266;28;20046;-92
2024/01/31 08:07:24;;;;;;;0.73;0.73;;;;;;;6.43;90.98;100188.50;4976261;28;20047;-92
2024/01/31 08:09:50;;;;;;;0.80;0.80;;;;;;;6.37;91.63;100190.72;4983547;28;20162;-94
2024/01/31 08:12:15;;;;;;;0.70;0.70;;;;;;;6.46;91.72;100186.84;4975705;28;20034;-93
2024/01/31 08:14:41;;;;;;;0.70;0.70;;;;;;;6.57;91.33;100201.78;4996277;28;20087;-93
2024/01/31 08:17:27;;;;;;;0.77;0.77;;;;;;;6.67;90.80;100194.56;5000002;28;20121;-93
2024/01/31 08:20:06;;;;;;;0.70;0.70;;;;;;;6.64;90.60;100201.38;4996104;28;20101;-92
2024/01/31 08:22:40;;;;;;;0.80;0.80;;;;;;;6.70;90.67;100207.09;4990938;28;20031;-92
2024/01/31 08:25:10;;;;;;;0.80;0.80;;;;;;;6.83;90.05;100207.09;4978238;28;20023;-91
2024/01/31 08:27:37;;;;;;;0.80;0.80;;;;;;;6.95;89.20;100204.38;4962124;28;20035;-92
2024/01/31 08:30:05;;;;;;;0.80;0.80;;;;;;;7.10;88.78;100216.00;4967209;28;20062;-93
2024/01/31 08:32:34;;;;;;;0.80;0.80;;;;;;;7.22;87.98;100213.22;4964300;28;20039;-92
2024/01/31 08:35:03;;;;;;;0.77;0.77;;;;;;;7.38;86.95;100204.56;4981492;28;20065;-92
2024/01/31 08:37:30;;;;;;;0.70;0.70;;;;;;;7.48;86.52;100195.47;4968013;28;20039;-93
2024/01/31 08:39:55;;;;;;;0.80;0.80;;;;;;;7.61;86.15;100190.09;4976438;28;20069;-92
2024/01/31 08:42:21;;;;;;;0.70;0.70;;;;;;;7.70;85.61;100194.25;4966573;28;20030;-92
2024/01/31 08:44:46;;;;;;;0.70;0.70;;;;;;;7.75;85.12;100191.88;4955833;28;20085;-92
2024/01/31 08:47:14;;;;;;;0.80;0.80;;;;;;;7.80;85.17;100187.78;4992856;28;20503;-93
2024/01/31 08:49:42;;;;;;;0.70;0.70;;;;;;;8.01;85.18;100182.00;4964263;28;20030;-92
2024/01/31 08:52:07;;;;;;;0.70;0.70;;;;;;;8.13;85.15;100181.00;4970681;28;20505;-93
2024/01/31 08:54:33;;;;;;;0.70;0.70;;;;;;;8.36;83.95;100182.47;4984543;28;20052;-92
2024/01/31 08:57:00;;;;;;;0.70;0.70;;;;;;;8.60;82.92;100191.00;4981348;28;20496;-93
2024/01/31 08:59:26;;;;;;;0.80;0.80;;;;;;;8.69;82.29;100180.00;4982450;28;20037;-92
2024/01/31 09:01:52;;;;;;;0.70;0.70;;;;;;;8.82;81.47;100182.59;4975807;28;20030;-92
2024/01/31 09:04:17;;;;;;;0.70;0.70;;;;;;;8.73;81.25;100182.94;4956029;28;20034;-93
2024/01/31 09:06:44;;;;;;;0.70;0.70;;;;;;;8.73;81.06;100184.69;4960597;28;20376;-94
2024/01/31 09:09:10;;;;;;;0.60;0.60;;;;;;;8.97;79.72;100178.16;4975784;28;20509;-92
2024/01/31 09:11:35;;;;;;;0.70;0.70;;;;;;;9.11;79.41;100178.06;4973392;28;20039;-92
2024/01/31 09:14:01;;;;;;;0.63;0.63;;;;;;;9.14;79.25;100176.47;4974908;28;20062;-92
2024/01/31 09:16:26;;;;;;;0.70;0.70;;;;;;;9.31;78.09;100181.84;4953197;28;20027;-91
2024/01/31 09:18:52;;;;;;;0.70;0.70;;;;;;;9.37;77.92;100183.13;4968450;28;20043;-92
2024/01/31 09:21:20;;;;;;;0.70;0.70;;;;;;;9.40;77.78;100190.38;4979304;28;20038;-92
2024/01/31 09:23:46;;;;;;;0.60;0.60;;;;;;;9.21;77.67;100183.06;4983630;28;20034;-92
2024/01/31 09:26:12;;;;;;;0.70;0.70;;;;;;;9.05;79.02;100186.56;4979413;28;20022;-94
2024/01/31 09:28:39;;;;;;;0.60;0.60;;;;;;;9.20;78.43;100179.50;4982289;28;20440;-92
2024/01/31 09:31:04;;;;;;;0.60;0.60;;;;;;;9.06;78.77;100184.84;4948347;28;20061;-92
2024/01/31 09:33:30;;;;;;;0.65;0.65;;;;;;;9.06;79.36;100184.84;4978565;28;20042;-91
2024/01/31 09:35:55;;;;;;;0.70;0.70;;;;;;;9.14;78.64;100186.19;4978988;28;20038;-91
2024/01/31 09:38:25;;;;;;;0.60;0.60;;;;;;;9.21;78.68;100191.97;4977342;28;20038;-91
2024/01/31 09:40:51;;;;;;;0.70;0.70;;;;;;;9.34;77.47;100185.63;4977741;28;20121;-92
2024/01/31 09:43:17;;;;;;;0.60;0.60;;;;;;;9.50;76.36;100182.06;4960759;28;20093;-90
2024/01/31 09:45:44;;;;;;;0.60;0.60;;;;;;;9.51;76.68;100176.81;4989772;28;20030;-91
2024/01/31 09:48:13;;;;;;;0.60;0.60;;;;;;;9.30;77.14;100186.28;4978982;28;20040;-91
2024/01/31 09:50:39;;;;;;;0.70;0.70;;;;;;;9.31;77.00;100180.09;4956271;28;20035;-91
2024/01/31 09:53:05;;;;;;;0.70;0.70;;;;;;;9.48;76.63;100184.63;4982422;28;20053;-93
2024/01/31 09:55:34;;;;;;;0.70;0.70;;;;;;;9.65;76.32;100182.03;4968851;28;20543;-91
2024/01/31 09:58:01;;;;;;;0.70;0.70;;;;;;;9.54;76.65;100178.75;4972220;28;20039;-92
2024/01/31 10:00:28;;;;;;;0.80;0.80;;;;;;;9.58;76.58;100178.09;4956446;28;20488;-91
2024/01/31 10:02:53;;;;;;;0.70;0.70;;;;;;;10.00;75.52;100176.88;4963053;28;20038;-92
2024/01/31 10:05:18;;;;;;;0.70;0.70;;;;;;;10.22;74.32;100178.06;4960775;28;20378;-93
2024/01/31 10:07:44;;;;;;;0.70;0.70;;;;;;;10.67;72.75;100163.56;4981597;28;20105;-92
2024/01/31 10:10:12;;;;;;;0.70;0.70;;;;;;;10.58;71.93;100159.50;4981652;28;20112;-92
2024/01/31 10:12:38;;;;;;;0.60;0.60;;;;;;;10.58;72.43;100156.84;4963027;28;20069;-93
2024/01/31 10:15:09;;;;;;;0.70;0.70;;;;;;;10.46;73.23;100151.78;4960074;28;20122;-92
2024/01/31 10:17:35;;;;;;;0.60;0.60;;;;;;;9.64;75.34;100161.53;4977005;28;20050;-91
2024/01/31 10:20:10;;;;;;;0.70;0.70;;;;;;;9.95;75.20;100161.47;4977210;28;20534;-92
2024/01/31 10:22:36;;;;;;;0.60;0.60;;;;;;;10.30;73.51;100155.41;4976350;28;20041;-91
2024/01/31 10:25:07;;;;;;;0.60;0.60;;;;;;;10.43;72.87;100141.84;4965638;28;20038;-92
2024/01/31 10:27:36;;;;;;;0.60;0.60;;;;;;;10.21;73.99;100149.56;4976162;28;20513;-92
2024/01/31 10:30:07;;;;;;;0.60;0.60;;;;;;;10.45;73.15;100153.53;4980252;28;20046;-92
2024/01/31 10:32:34;;;;;;;0.60;0.60;;;;;;;10.48;72.73;100151.00;4959099;28;20039;-92
2024/01/31 10:35:01;;;;;;;0.60;0.60;;;;;;;10.28;73.80;100151.72;4978772;28;20041;-92
2024/01/31 10:37:27;;;;;;;0.60;0.60;;;;;;;10.22;74.27;100154.03;4965530;28;20444;-91
2024/01/31 10:39:55;;;;;;;0.60;0.60;;;;;;;10.11;74.58;100155.19;4977416;28;20043;-92
2024/01/31 10:42:21;;;;;;;0.68;0.68;;;;;;;10.01;74.63;100153.78;4977149;28;20137;-92
2024/01/31 10:44:48;;;;;;;0.60;0.60;;;;;;;10.18;74.17;100150.28;4977841;28;20041;-91
2024/01/31 10:47:14;;;;;;;0.70;0.70;;;;;;;10.15;74.42;100143.88;4964988;28;20038;-92
2024/01/31 10:49:40;;;;;;;0.60;0.60;;;;;;;10.08;74.49;100141.72;4979546;28;20473;-91
2024/01/31 10:52:09;;;;;;;0.60;0.60;;;;;;;10.19;74.38;100137.88;4975777;28;20049;-92
2024/01/31 10:54:39;;;;;;;0.70;0.70;;;;;;;10.31;74.09;100133.22;4957090;28;20033;-90
2024/01/31 10:57:06;;;;;;;0.60;0.60;;;;;;;10.49;73.25;100127.91;4976900;28;20034;-92
2024/01/31 10:59:36;;;;;;;0.60;0.60;;;;;;;10.51;73.30;100132.50;4976383;28;20575;-90
2024/01/31 11:02:03;;;;;;;0.60;0.60;;;;;;;10.63;72.43;100131.28;4979005;28;20026;-92
2024/01/31 11:04:28;;;;;;;0.60;0.60;;;;;;;10.75;72.44;100124.84;4981568;28;20074;-92
2024/01/31 11:06:59;;;;;;;0.60;0.60;;;;;;;10.76;71.94;100136.44;4979246;28;20023;-92
2024/01/31 11:09:26;;;;;;;0.60;0.60;;;;;;;10.56;72.75;100126.50;4958976;28;20122;-92
2024/01/31 11:12:05;;;;;;;0.70;0.70;;;;;;;10.56;72.88;100122.06;4980823;28;20485;-93
2024/01/31 11:14:32;;;;;;;0.60;0.60;;;;;;;10.47;72.69;100119.84;4971531;28;20039;-93
2024/01/31 11:17:17;;;;;;;0.60;0.60;;;;;;;10.53;72.86;100112.13;4963384;28;20477;-91
2024/01/31 11:19:56;;;;;;;0.70;0.70;;;;;;;10.42;72.99;100109.78;4978146;28;20031;-91
2024/01/31 11:22:22;;;;;;;0.60;0.60;;;;;;;10.91;70.85;100102.47;4978563;28;20039;-93
2024/01/31 11:24:51;;;;;;;0.70;0.70;;;;;;;11.24;70.85;100099.66;4953868;28;20037;-93
2024/01/31 11:27:18;;;;;;;0.60;0.60;;;;;;;11.41;69.81;100103.16;4978885;28;20034;-93
2024/01/31 11:29:53;;;;;;;0.70;0.70;;;;;;;11.30;70.49;100100.84;4976838;28;20042;-93